Time;durP1;ratioP1;P1;durP2;ratioP2;P2;SDS_P1;SDS_P2;PMS_P1;PMS_P2;Temp;Humidity;BMP_temperature;BMP_pressure;BME280_temperature;BME280_humidity;BME280_pressure;Samples;Min_cycle;Max_cycle;Signal;HPM_P1;HPM_P2
2022/02/03 00:00:04;;;;;;;55.78;23.47;;;;;;;-0.77;100.00;99062.59;1680748;83;21096;-69
2022/02/03 00:02:35;;;;;;;51.25;21.12;;;;;;;-0.77;100.00;99060.00;1688481;83;21065;-68
2022/02/03 00:07:34;;;;;;;46.02;20.97;;;;;;;-0.75;100.00;99069.90;1676647;83;21587;-69
2022/02/03 00:26:02;;;;;;;45.52;20.80;;;;;;;-0.64;100.00;99068.53;1664973;85;21052;-69
2022/02/03 00:28:31;;;;;;;50.70;19.35;;;;;;;-0.61;100.00;99067.64;1687783;83;21168;-69
2022/02/03 00:31:01;;;;;;;40.43;18.80;;;;;;;-0.61;100.00;99074.10;1674895;85;21642;-70
2022/02/03 00:33:47;;;;;;;49.93;21.60;;;;;;;-0.62;100.00;99071.08;1676734;83;21123;-68
2022/02/03 00:36:11;;;;;;;44.13;20.05;;;;;;;-0.60;100.00;99070.63;1686042;83;21074;-69
2022/02/03 00:49:25;;;;;;;49.93;23.50;;;;;;;-0.59;100.00;99067.19;1688800;83;21121;-67
2022/02/03 00:51:57;;;;;;;47.55;20.62;;;;;;;-0.56;100.00;99058.11;1682766;83;21079;-67
2022/02/03 00:54:24;;;;;;;57.13;26.20;;;;;;;-0.55;100.00;99054.63;1665982;83;21050;-68
2022/02/03 00:56:55;;;;;;;61.02;27.58;;;;;;;-0.54;100.00;99058.95;1686968;83;21177;-68
2022/02/03 00:59:45;;;;;;;66.50;27.60;;;;;;;-0.53;100.00;99061.94;1687263;83;21036;-68
2022/02/03 01:02:13;;;;;;;65.40;29.05;;;;;;;-0.53;100.00;99065.82;1698024;84;21042;-68
2022/02/03 01:04:41;;;;;;;62.65;28.23;;;;;;;-0.55;100.00;99057.22;1682012;84;21866;-69
2022/02/03 01:07:18;;;;;;;60.45;27.40;;;;;;;-0.52;100.00;99058.50;1687769;84;21114;-68
2022/02/03 01:09:59;;;;;;;63.20;27.73;;;;;;;-0.50;100.00;99064.52;1698312;83;21135;-68
2022/02/03 01:13:29;;;;;;;54.77;25.68;;;;;;;-0.51;100.00;99061.50;1684800;84;21608;-68
2022/02/03 01:15:12;;;;;;;59.50;26.10;;;;;;;-0.48;100.00;99066.66;1661701;84;21033;-69
2022/02/03 01:20:42;;;;;;;57.13;27.07;;;;;;;-0.50;100.00;99068.41;1693646;84;21042;-69
2022/02/03 01:44:55;;;;;;;67.75;27.30;;;;;;;-0.46;100.00;99064.89;1680896;84;21290;-67
2022/02/03 01:47:50;;;;;;;60.28;26.57;;;;;;;-0.43;100.00;99072.64;1674981;84;21100;-66
2022/02/03 01:52:36;;;;;;;62.38;27.93;;;;;;;-0.46;100.00;99081.29;1684487;84;21089;-69
2022/02/03 01:55:09;;;;;;;53.30;26.55;;;;;;;-0.45;100.00;99082.14;1685412;84;21388;-68
2022/02/03 01:57:47;;;;;;;63.95;28.87;;;;;;;-0.47;100.00;99074.83;1682937;84;21582;-67
2022/02/03 02:00:15;;;;;;;56.20;25.82;;;;;;;-0.46;100.00;99077.83;1691821;84;21129;-67
2022/02/03 02:03:14;;;;;;;61.55;27.35;;;;;;;-0.43;100.00;99080.41;1685239;83;21590;-68
2022/02/03 02:06:05;;;;;;;61.40;27.48;;;;;;;-0.44;100.00;99072.20;1696346;83;21019;-70
2022/02/03 02:08:52;;;;;;;62.53;25.88;;;;;;;-0.40;100.00;99073.89;1694496;83;21028;-68
2022/02/03 02:11:53;;;;;;;54.15;24.80;;;;;;;-0.37;100.00;99069.13;1676195;83;22139;-67
2022/02/03 02:18:13;;;;;;;55.65;25.35;;;;;;;-0.35;100.00;99070.82;1702851;83;21159;-68
2022/02/03 02:19:58;;;;;;;51.85;23.80;;;;;;;-0.31;100.00;99074.25;1676615;83;21028;-68
2022/02/03 02:42:59;;;;;;;54.13;24.10;;;;;;;-0.26;100.00;99074.61;1686231;83;21594;-69
2022/02/03 02:45:53;;;;;;;66.70;28.10;;;;;;;-0.22;100.00;99073.71;1695066;83;21583;-67
2022/02/03 02:48:55;;;;;;;60.03;26.48;;;;;;;-0.16;100.00;99070.63;1641729;86;21062;-69
2022/02/03 02:51:31;;;;;;;56.68;25.77;;;;;;;-0.11;100.00;99074.91;1640204;86;21058;-69
2022/02/03 03:32:26;;;;;;;62.73;28.87;;;;;;;0.06;100.00;99084.20;1753232;81;21081;-66
2022/02/03 03:37:30;;;;;;;77.27;33.15;;;;;;;0.02;100.00;99096.31;1755042;81;21617;-68
2022/02/03 03:39:59;;;;;;;61.00;27.32;;;;;;;0.00;100.00;99098.09;1737569;81;21593;-66
2022/02/03 03:42:32;;;;;;;68.62;30.82;;;;;;;-0.02;100.00;99105.02;1754695;81;21145;-66
2022/02/03 03:45:01;;;;;;;71.22;30.92;;;;;;;-0.05;100.00;99098.55;1755879;81;21046;-66
2022/02/03 03:47:28;;;;;;;62.25;28.80;;;;;;;-0.01;100.00;99105.42;1755458;81;21811;-67
2022/02/03 03:50:03;;;;;;;59.48;28.42;;;;;;;-0.02;100.00;99105.02;1754625;81;21056;-66
2022/02/03 03:52:33;;;;;;;63.80;28.52;;;;;;;0.02;100.00;99111.00;1708546;81;21099;-66
2022/02/03 04:38:36;;;;;;;63.95;31.15;;;;;;;0.03;100.00;99139.47;1711937;83;21115;-68
2022/02/03 04:44:58;;;;;;;62.40;28.07;;;;;;;0.01;100.00;99142.95;1699337;83;21070;-67
2022/02/03 05:03:14;;;;;;;63.28;28.80;;;;;;;-0.18;100.00;99164.23;1715762;83;21107;-66
2022/02/03 05:08:56;;;;;;;;;;;;;;;-0.16;100.00;99166.38;1711551;82;21099;-66
2022/02/03 05:11:49;;;;;;;66.60;29.55;;;;;;;-0.17;100.00;99167.27;1697953;83;20565;-66
2022/02/03 05:15:13;;;;;;;62.78;30.50;;;;;;;-0.17;100.00;99172.00;1688009;82;21855;-68
2022/02/03 05:24:27;;;;;;;59.10;26.95;;;;;;;-0.12;100.00;99188.78;1700704;83;21112;-67
2022/02/03 05:43:10;;;;;;;72.47;31.80;;;;;;;0.01;100.00;99207.66;1705792;83;21664;-65
2022/02/03 06:14:11;;;;;;;57.08;27.35;;;;;;;0.13;100.00;99227.80;1708397;82;21117;-70
2022/02/03 06:16:42;;;;;;;68.92;33.18;;;;;;;0.15;100.00;99229.09;1693447;83;21060;-69
2022/02/03 06:22:10;;;;;;;87.12;38.78;;;;;;;0.19;100.00;99235.53;1708914;83;21138;-69
2022/02/03 06:29:47;;;;;;;86.40;37.08;;;;;;;0.40;100.00;99250.44;1709846;83;21086;-69
2022/02/03 06:32:08;;;;;;;94.72;38.55;;;;;;;0.48;100.00;99253.80;1712002;83;21093;-67
2022/02/03 06:34:35;;;;;;;76.12;30.70;;;;;;;0.45;100.00;99260.75;1671394;85;21066;-67
2022/02/03 06:37:02;;;;;;;94.30;39.80;;;;;;;0.44;100.00;99259.02;1674087;85;21169;-69
2022/02/03 06:39:29;;;;;;;73.55;34.05;;;;;;;0.54;100.00;99261.52;1693597;83;21035;-69
2022/02/03 06:41:58;;;;;;;93.97;43.20;;;;;;;0.56;100.00;99270.13;1699899;83;21548;-71
2022/02/03 06:44:37;;;;;;;87.08;42.27;;;;;;;0.62;100.00;99267.48;1701601;83;21085;-69
2022/02/03 06:47:03;;;;;;;78.75;36.83;;;;;;;0.68;100.00;99262.66;1704958;82;21042;-69
2022/02/03 06:52:05;;;;;;;78.10;35.35;;;;;;;0.81;100.00;99271.17;1708312;82;21011;-69
2022/02/03 06:54:50;;;;;;;71.55;34.83;;;;;;;0.82;100.00;99276.77;1698749;83;21057;-68
2022/02/03 06:57:08;;;;;;;87.80;40.38;;;;;;;0.83;100.00;99273.31;1704566;81;21621;-69
2022/02/03 06:59:43;;;;;;;70.32;34.45;;;;;;;0.88;100.00;99281.89;1702280;83;21098;-69
2022/02/03 07:02:03;;;;;;;82.57;36.75;;;;;;;0.88;100.00;99274.12;1700361;82;22009;-70
2022/02/03 07:04:38;;;;;;;101.58;42.80;;;;;;;0.96;100.00;99285.23;1700817;83;21067;-70
2022/02/03 07:07:01;;;;;;;90.62;36.33;;;;;;;1.00;100.00;99285.63;1660171;85;21113;-69
2022/02/03 07:09:27;;;;;;;116.73;45.48;;;;;;;1.01;100.00;99287.78;1706652;83;21072;-68
2022/02/03 07:11:54;;;;;;;88.55;38.40;;;;;;;1.10;100.00;99293.30;1711982;83;22163;-69
2022/02/03 07:14:23;;;;;;;84.58;39.92;;;;;;;1.09;100.00;99295.48;1701214;82;21495;-70
2022/02/03 07:16:51;;;;;;;84.80;38.42;;;;;;;1.10;100.00;99294.59;1712507;82;21055;-70
2022/02/03 07:19:19;;;;;;;81.57;38.33;;;;;;;1.18;100.00;99308.34;1708168;82;21084;-69
2022/02/03 07:21:47;;;;;;;116.15;45.90;;;;;;;1.14;100.00;99304.06;1707721;82;21071;-68
2022/02/03 07:24:14;;;;;;;111.85;47.10;;;;;;;1.15;100.00;99311.84;1669235;85;21043;-69
2022/02/03 07:26:41;;;;;;;92.10;41.10;;;;;;;1.14;100.00;99311.84;1708368;83;21148;-68
2022/02/03 07:29:10;;;;;;;110.42;46.60;;;;;;;1.13;100.00;99307.10;1706049;82;22300;-70
2022/02/03 07:31:37;;;;;;;97.47;43.65;;;;;;;1.21;100.00;99314.33;1715006;82;21104;-69
2022/02/03 07:34:10;;;;;;;120.47;50.83;;;;;;;1.21;100.00;99316.08;1703217;82;21572;-69
2022/02/03 07:36:32;;;;;;;111.00;50.67;;;;;;;1.21;100.00;99310.89;1707094;82;21250;-69
2022/02/03 07:39:00;;;;;;;84.03;41.65;;;;;;;1.25;100.00;99320.36;1674404;84;22082;-69
2022/02/03 07:41:27;;;;;;;106.37;44.30;;;;;;;1.24;100.00;99323.81;1666283;85;22146;-69
2022/02/03 07:43:53;;;;;;;129.72;42.67;;;;;;;1.34;100.00;99324.13;1664863;84;21071;-69
2022/02/03 07:46:19;;;;;;;93.95;40.63;;;;;;;1.33;100.00;99330.19;1671208;84;21192;-68
2022/02/03 07:48:49;;;;;;;91.08;41.90;;;;;;;1.30;100.00;99333.27;1666784;85;21693;-69
2022/02/03 07:51:16;;;;;;;87.25;38.75;;;;;;;1.32;100.00;99332.38;1660163;84;21850;-69
2022/02/03 07:53:43;;;;;;;84.75;40.28;;;;;;;1.28;100.00;99335.88;1668731;85;21070;-69
2022/02/03 07:56:09;;;;;;;83.15;39.90;;;;;;;1.33;100.00;99337.11;1666429;85;21713;-68
2022/02/03 07:58:36;;;;;;;79.80;37.30;;;;;;;1.40;100.00;99334.45;1669219;85;21100;-69
2022/02/03 08:01:02;;;;;;;99.92;43.75;;;;;;;1.40;100.00;99334.45;1670390;85;21059;-68
2022/02/03 08:03:29;;;;;;;74.82;38.83;;;;;;;1.49;100.00;99339.08;1670835;85;21202;-69
2022/02/03 08:06:02;;;;;;;73.83;39.30;;;;;;;1.51;100.00;99336.03;1661935;85;22096;-68
2022/02/03 08:08:35;;;;;;;87.80;41.20;;;;;;;1.62;100.00;99331.11;1662758;84;21078;-69
2022/02/03 08:11:03;;;;;;;84.40;40.48;;;;;;;1.73;100.00;99336.61;1660842;85;21605;-69
2022/02/03 08:13:36;;;;;;;99.00;43.13;;;;;;;1.73;100.00;99336.61;1655525;84;21166;-68
2022/02/03 08:16:06;;;;;;;95.60;45.65;;;;;;;1.80;100.00;99336.95;1654793;84;21134;-68
2022/02/03 08:18:31;;;;;;;101.60;47.38;;;;;;;1.79;100.00;99336.06;1648400;84;21099;-69
2022/02/03 08:21:02;;;;;;;112.55;48.75;;;;;;;1.85;100.00;99341.17;1654962;85;21613;-69
2022/02/03 08:26:13;;;;;;;107.05;49.13;;;;;;;1.93;100.00;99342.80;1651138;84;21113;-69
2022/02/03 08:31:10;;;;;;;98.85;43.98;;;;;;;1.96;100.00;99342.78;1703293;83;21071;-69
2022/02/03 08:33:35;;;;;;;96.12;43.60;;;;;;;1.94;100.00;99349.73;1682915;84;21033;-69
2022/02/03 08:36:05;;;;;;;80.85;38.53;;;;;;;1.98;100.00;99356.16;1693083;83;21582;-69
2022/02/03 08:41:03;;;;;;;53.08;27.13;;;;;;;1.98;100.00;99350.96;1705591;82;21856;-69
2022/02/03 08:43:35;;;;;;;52.35;25.32;;;;;;;2.07;100.00;99356.44;1705950;82;21077;-70
2022/02/03 08:46:07;;;;;;;41.45;22.42;;;;;;;2.04;100.00;99361.69;1683660;83;21061;-69
2022/02/03 08:48:34;;;;;;;40.35;21.68;;;;;;;2.09;100.00;99362.47;1684264;83;21081;-69
2022/02/03 08:51:05;;;;;;;40.98;22.15;;;;;;;2.18;100.00;99364.92;1702941;82;21097;-69
2022/02/03 08:53:37;;;;;;;45.70;22.20;;;;;;;2.13;100.00;99371.09;1709472;82;21783;-70
2022/02/03 08:56:19;;;;;;;40.03;22.10;;;;;;;2.13;100.00;99371.09;1707472;82;21081;-70
2022/02/03 09:41:41;;;;;;;17.40;10.72;;;;;;;1.59;100.00;99415.95;1712597;82;21112;-72
2022/02/03 09:59:35;;;;;;;22.62;13.45;;;;;;;1.39;100.00;99424.81;1701286;82;21544;-70
2022/02/03 10:02:08;;;;;;;16.62;9.75;;;;;;;1.35;100.00;99423.13;1672576;81;21556;-67
2022/02/03 10:04:50;;;;;;;13.38;8.90;;;;;;;1.35;100.00;99423.13;1626620;86;21089;-67
2022/02/03 10:07:17;;;;;;;15.10;9.10;;;;;;;1.33;100.00;99432.66;1655210;85;21150;-68
2022/02/03 10:09:41;;;;;;;13.55;9.18;;;;;;;1.33;100.00;99432.66;1648516;85;21150;-67
2022/02/03 10:12:09;;;;;;;13.53;9.80;;;;;;;1.25;100.00;99437.08;1676822;85;21145;-68
2022/02/03 10:14:38;;;;;;;12.55;9.05;;;;;;;1.18;100.00;99441.91;1648031;86;21585;-67
2022/02/03 10:17:06;;;;;;;12.80;9.00;;;;;;;1.12;100.00;99449.74;1664614;85;21067;-66
2022/02/03 10:19:36;;;;;;;15.98;9.53;;;;;;;1.04;100.00;99449.38;1654207;85;21083;-67
2022/02/03 10:22:12;;;;;;;14.73;8.98;;;;;;;1.00;100.00;99444.23;1637184;85;21570;-67
2022/02/03 10:24:43;;;;;;;14.20;9.80;;;;;;;0.99;100.00;99448.57;1597822;89;21169;-67
2022/02/03 10:27:28;;;;;;;17.95;11.33;;;;;;;0.97;100.00;99449.46;1612722;88;21074;-67
2022/02/03 10:30:22;;;;;;;15.70;9.83;;;;;;;0.90;100.00;99444.77;1615500;87;21062;-67
2022/02/03 10:32:44;;;;;;;14.20;9.58;;;;;;;0.84;100.00;99448.70;1677270;85;21051;-68
2022/02/03 10:35:19;;;;;;;17.80;11.05;;;;;;;0.78;100.00;99459.10;1665387;85;21043;-68
2022/02/03 10:37:50;;;;;;;15.20;9.93;;;;;;;0.78;100.00;99468.17;1673806;85;21109;-67
2022/02/03 10:40:40;;;;;;;16.00;10.65;;;;;;;0.79;100.00;99471.20;1653867;85;20996;-67
2022/02/03 10:43:34;;;;;;;17.40;11.15;;;;;;;0.75;100.00;99480.73;1666499;85;21081;-67
2022/02/03 10:45:56;;;;;;;17.95;10.50;;;;;;;0.73;100.00;99483.77;1651885;85;21065;-68
2022/02/03 10:59:12;;;;;;;19.12;11.20;;;;;;;0.63;100.00;99499.82;1614684;88;21102;-70
2022/02/03 11:01:42;;;;;;;18.48;12.33;;;;;;;0.59;100.00;99495.97;1607258;88;21011;-69
2022/02/03 11:04:14;;;;;;;21.75;12.75;;;;;;;0.53;100.00;99500.77;1629686;85;21906;-69
2022/02/03 11:06:36;;;;;;;24.20;13.83;;;;;;;0.54;100.00;99504.21;1594641;87;21106;-69
2022/02/03 11:11:37;;;;;;;34.90;19.05;;;;;;;0.53;100.00;99518.02;1638657;87;21458;-70
2022/02/03 11:14:03;;;;;;;22.02;12.30;;;;;;;0.53;100.00;99518.91;1658452;85;21257;-70
2022/02/03 11:16:32;;;;;;;19.92;12.05;;;;;;;0.63;100.00;99523.14;1677506;85;21128;-69
2022/02/03 11:19:05;;;;;;;35.58;20.82;;;;;;;0.56;100.00;99522.76;1678137;85;21442;-69
2022/02/03 11:21:33;;;;;;;25.20;12.60;;;;;;;0.49;100.00;99524.97;1629114;87;21113;-69
2022/02/03 11:24:07;;;;;;;22.07;12.98;;;;;;;0.54;100.00;99525.79;1624268;87;21593;-69
2022/02/03 11:26:45;;;;;;;32.45;16.97;;;;;;;0.48;100.00;99523.23;1628382;88;21085;-69
2022/02/03 11:30:30;;;;;;;21.52;12.13;;;;;;;0.38;100.00;99525.02;1604150;88;21132;-69
2022/02/03 12:02:03;;;;;;;19.85;11.12;;;;;;;0.22;100.00;99560.07;1610621;88;21673;-69
2022/02/03 12:10:58;;;;;;;25.75;14.10;;;;;;;0.05;100.00;99576.98;1590286;90;21600;-70
2022/02/03 12:13:45;;;;;;;18.85;10.40;;;;;;;-0.01;100.00;99573.95;1606216;87;21646;-67
2022/02/03 12:16:13;;;;;;;20.00;11.78;;;;;;;0.01;100.00;99578.70;1590860;88;21053;-67
2022/02/03 12:21:22;;;;;;;16.93;10.00;;;;;;;-0.08;100.00;99576.99;1603723;87;21678;-66
2022/02/03 12:24:11;;;;;;;34.83;17.52;;;;;;;-0.03;100.00;99582.16;1607385;87;21569;-67
2022/02/03 12:26:41;;;;;;;25.52;14.30;;;;;;;-0.04;100.00;99585.62;1620075;87;21069;-67
2022/02/03 12:29:13;;;;;;;19.17;10.63;;;;;;;-0.01;100.00;99593.38;1639275;87;21094;-67
2022/02/03 12:39:18;;;;;;;28.85;15.65;;;;;;;0.13;100.00;99608.87;1651573;85;21046;-66
2022/02/03 12:44:18;;;;;;;19.35;11.28;;;;;;;0.22;100.00;99610.57;1659075;85;21584;-67
2022/02/03 12:46:39;;;;;;;38.45;16.15;;;;;;;0.23;100.00;99614.87;1654733;85;21070;-66
2022/02/03 12:49:06;;;;;;;26.80;12.85;;;;;;;0.14;100.00;99621.82;1615438;88;21177;-66
2022/02/03 12:51:33;;;;;;;30.05;16.27;;;;;;;0.08;100.00;99624.41;1622698;87;21109;-67
2022/02/03 12:54:12;;;;;;;19.75;10.68;;;;;;;0.02;100.00;99627.01;1621573;86;21076;-66
2022/02/03 12:56:39;;;;;;;17.57;10.25;;;;;;;0.04;100.00;99634.34;1615669;88;21065;-69
2022/02/03 12:59:09;;;;;;;20.10;11.70;;;;;;;-0.01;100.00;99630.91;1651309;86;21101;-69
2022/02/03 13:01:37;;;;;;;19.40;10.68;;;;;;;-0.06;100.00;99645.59;1616776;87;21556;-69
2022/02/03 13:04:09;;;;;;;19.05;11.75;;;;;;;0.02;100.00;99643.84;1624601;85;21101;-70
2022/02/03 13:06:33;;;;;;;31.90;16.70;;;;;;;-0.05;100.00;99649.89;1622820;88;21577;-67
2022/02/03 13:09:03;;;;;;;18.70;10.60;;;;;;;-0.10;100.00;99652.93;1628914;88;21125;-68
2022/02/03 13:14:22;;;;;;;19.65;10.58;;;;;;;-0.14;100.00;99652.05;1610389;87;21290;-67
2022/02/03 13:16:38;;;;;;;23.60;12.23;;;;;;;-0.16;100.00;99666.75;1643188;87;21086;-67
2022/02/03 13:26:59;;;;;;;17.55;10.43;;;;;;;-0.14;100.00;99658.97;1669103;85;21565;-67
2022/02/03 13:29:53;;;;;;;19.32;11.18;;;;;;;-0.17;100.00;99665.45;1650671;86;21101;-67
2022/02/03 13:32:14;;;;;;;22.25;12.73;;;;;;;-0.17;100.00;99661.57;1648834;86;21055;-68
2022/02/03 13:34:52;;;;;;;21.90;11.77;;;;;;;-0.22;100.00;99665.45;1650725;85;21542;-67
2022/02/03 13:37:29;;;;;;;22.15;12.23;;;;;;;-0.22;100.00;99670.19;1633799;86;21099;-67
2022/02/03 13:40:09;;;;;;;25.17;14.83;;;;;;;-0.22;100.00;99665.02;1656547;85;21502;-67
2022/02/03 13:42:37;;;;;;;26.95;14.85;;;;;;;-0.27;100.00;99674.52;1666522;85;21093;-68
2022/02/03 13:45:07;;;;;;;23.07;12.50;;;;;;;-0.37;100.00;99679.24;1647012;85;21054;-67
2022/02/03 13:47:38;;;;;;;26.30;14.65;;;;;;;-0.34;100.00;99679.27;1608613;87;21070;-67
2022/02/03 13:50:20;;;;;;;19.62;11.75;;;;;;;-0.39;100.00;99678.41;1600845;88;21624;-69
2022/02/03 13:53:00;;;;;;;25.10;13.03;;;;;;;-0.34;100.00;99679.27;1602536;88;21173;-69
2022/02/03 14:15:33;;;;;;;25.48;13.08;;;;;;;-0.59;100.00;99709.42;1599336;88;21181;-68
2022/02/03 14:20:37;;;;;;;22.73;12.15;;;;;;;-0.68;100.00;99705.09;1598337;88;21647;-69
2022/02/03 14:28:12;;;;;;;20.48;12.03;;;;;;;-0.78;100.00;99712.82;1597035;89;21105;-68
2022/02/03 14:30:45;;;;;;;29.45;17.05;;;;;;;-0.77;100.00;99722.32;1597347;89;21177;-69
2022/02/03 14:33:11;;;;;;;23.10;12.65;;;;;;;-0.78;100.00;99736.98;1627435;86;21123;-68
2022/02/03 14:35:38;;;;;;;34.53;18.17;;;;;;;-0.73;100.00;99728.80;1628465;86;21076;-67
2022/02/03 14:38:16;;;;;;;24.27;13.98;;;;;;;-0.80;100.00;99742.57;1628090;88;21593;-66
2022/02/03 14:40:49;;;;;;;24.90;12.47;;;;;;;-0.75;100.00;99755.52;1626844;88;21092;-67
2022/02/03 14:43:05;;;;;;;23.05;12.55;;;;;;;-0.72;100.00;99748.61;1625213;88;21510;-67
2022/02/03 14:45:31;;;;;;;19.87;11.53;;;;;;;-0.76;100.00;99750.78;1628405;88;21774;-67
2022/02/03 14:47:58;;;;;;;29.82;14.83;;;;;;;-0.82;100.00;99752.05;1631040;85;21084;-67
2022/02/03 14:50:24;;;;;;;33.53;15.35;;;;;;;-0.85;100.00;99754.63;1627658;88;21041;-67
2022/02/03 14:52:59;;;;;;;22.62;11.45;;;;;;;-0.87;100.00;99757.63;1625695;88;21645;-67
2022/02/03 14:58:22;;;;;;;20.00;10.93;;;;;;;-1.06;100.00;99761.45;1609926;88;21554;-67
2022/02/03 15:00:48;;;;;;;19.10;11.28;;;;;;;-1.12;100.00;99771.75;1612336;88;21103;-66
2022/02/03 15:03:17;;;;;;;20.32;11.43;;;;;;;-1.08;100.00;99783.83;1623024;86;21129;-68
2022/02/03 15:05:44;;;;;;;23.65;12.23;;;;;;;-1.14;100.00;99786.38;1617232;87;21461;-69
2022/02/03 15:08:19;;;;;;;20.50;11.80;;;;;;;-1.19;100.00;99798.42;1619866;87;21106;-70
2022/02/03 15:10:52;;;;;;;26.12;15.00;;;;;;;-1.18;100.00;99800.12;1616972;86;22013;-68
2022/02/03 15:13:35;;;;;;;24.18;12.63;;;;;;;-1.19;100.00;99812.63;1653008;85;21027;-69
2022/02/03 15:15:46;;;;;;;33.08;17.07;;;;;;;-1.10;100.00;99789.42;1645549;85;21149;-68
2022/02/03 15:18:15;;;;;;;18.73;10.43;;;;;;;-1.00;100.00;99827.80;1648182;85;21582;-69
2022/02/03 15:20:40;;;;;;;27.20;12.63;;;;;;;-0.98;100.00;99822.64;1613538;87;21511;-68
2022/02/03 15:23:08;;;;;;;20.25;11.20;;;;;;;-0.88;100.00;99806.30;1657563;85;21125;-69
2022/02/03 15:25:35;;;;;;;18.27;10.45;;;;;;;-0.94;100.00;99817.93;1649568;87;21026;-69
2022/02/03 15:28:01;;;;;;;20.95;11.48;;;;;;;-0.91;100.00;99820.08;1615866;88;21062;-70
2022/02/03 15:32:25;;;;;;;23.07;12.17;;;;;;;-1.02;100.00;99828.21;1796220;79;22653;-69
2022/02/03 15:34:54;;;;;;;25.23;13.53;;;;;;;-1.01;100.00;99836.42;1756055;81;21186;-69
2022/02/03 15:37:21;;;;;;;23.45;10.98;;;;;;;-1.03;100.00;99841.15;1755983;81;22311;-69
2022/02/03 15:39:50;;;;;;;30.00;16.62;;;;;;;-1.02;100.00;99840.28;1746564;81;21017;-69
2022/02/03 15:42:24;;;;;;;22.15;10.23;;;;;;;-1.06;100.00;99844.55;1741005;81;21041;-69
2022/02/03 15:44:51;;;;;;;19.77;10.05;;;;;;;-1.08;100.00;99839.83;1747638;81;21120;-69
2022/02/03 15:47:27;;;;;;;24.67;12.50;;;;;;;-1.04;100.00;99838.11;1748408;81;21101;-68
2022/02/03 15:50:37;;;;;;;18.55;9.75;;;;;;;-1.15;100.00;99846.69;1741840;82;21323;-69
2022/02/03 16:03:10;;;;;;;37.10;18.12;;;;;;;-1.28;100.00;99859.08;1746353;82;21193;-69
2022/02/03 16:18:45;;;;;;;36.28;16.80;;;;;;;-1.13;100.00;99885.44;1733339;82;21061;-69
2022/02/03 16:51:02;;;;;;;23.73;11.68;;;;;;;-1.44;100.00;99925.70;1723363;82;21125;-70
2022/02/03 16:53:20;;;;;;;26.65;13.60;;;;;;;-1.53;100.00;99929.92;1723364;82;21065;-70
2022/02/03 16:55:48;;;;;;;32.40;15.78;;;;;;;-1.49;100.00;99935.56;1723226;82;22058;-69
2022/02/03 16:58:15;;;;;;;22.85;10.98;;;;;;;-1.51;100.00;99937.27;1722650;82;21045;-69
2022/02/03 17:00:44;;;;;;;23.42;12.25;;;;;;;-1.43;100.00;99948.08;1744635;82;21112;-70
2022/02/03 17:03:09;;;;;;;34.23;16.62;;;;;;;-1.43;100.00;99958.41;1743531;82;21045;-70
2022/02/03 17:05:37;;;;;;;22.50;13.55;;;;;;;-1.51;100.00;99943.72;1716453;82;21065;-70
2022/02/03 17:08:06;;;;;;;24.27;12.28;;;;;;;-1.49;100.00;99948.47;1714597;82;21123;-70
2022/02/03 17:10:35;;;;;;;31.40;15.78;;;;;;;-1.51;100.00;99950.17;1718974;82;21069;-65
2022/02/03 17:13:02;;;;;;;20.70;10.75;;;;;;;-1.51;100.00;99965.67;1675868;85;21060;-65
2022/02/03 17:15:29;;;;;;;18.32;9.20;;;;;;;-1.51;100.00;99966.10;1680220;85;21502;-67
2022/02/03 17:17:56;;;;;;;17.10;9.18;;;;;;;-1.69;100.00;99963.77;1680524;85;21089;-66
2022/02/03 17:20:28;;;;;;;21.50;11.75;;;;;;;-1.86;100.00;99969.61;1674353;85;21362;-66
2022/02/03 17:22:54;;;;;;;21.07;9.88;;;;;;;-2.00;100.00;99967.77;1656753;85;21072;-68
2022/02/03 17:28:00;;;;;;;27.85;13.13;;;;;;;-2.27;100.00;99981.20;1663227;85;21080;-68
2022/02/03 17:30:28;;;;;;;22.73;10.60;;;;;;;-2.37;100.00;99984.09;1674077;84;21081;-68
2022/02/03 18:28:27;;;;;;;20.02;10.58;;;;;;;-2.94;100.00;100001.75;1696565;84;21142;-68
2022/02/03 18:51:04;;;;;;;16.32;8.35;;;;;;;-3.07;100.00;100003.69;1644782;85;21132;-68
2022/02/03 18:53:36;;;;;;;13.05;7.30;;;;;;;-3.08;99.68;100001.94;1694259;84;21279;-68
2022/02/03 18:56:14;;;;;;;14.10;7.60;;;;;;;-3.04;100.00;100004.58;1674441;85;21069;-68
2022/02/03 18:58:58;;;;;;;13.70;7.05;;;;;;;-3.04;100.00;100008.45;1655250;85;21131;-68
2022/02/03 19:01:33;;;;;;;11.57;7.28;;;;;;;-3.04;98.80;100014.03;1656766;85;21664;-68
2022/02/03 19:09:46;;;;;;;11.53;6.17;;;;;;;-3.07;97.94;100011.41;1658560;85;21052;-68
2022/02/03 19:59:26;;;;;;;10.75;6.12;;;;;;;-3.19;96.94;100027.11;1680092;84;21069;-65
2022/02/03 20:06:12;;;;;;;14.33;6.97;;;;;;;-3.18;97.07;100035.27;1723634;82;21049;-67
2022/02/03 20:11:00;;;;;;;26.45;11.15;;;;;;;-3.18;94.97;100043.00;1704649;82;22165;-66
2022/02/03 20:13:29;;;;;;;12.30;5.60;;;;;;;-3.21;95.18;100037.80;1709675;82;21108;-65
2022/02/03 20:15:56;;;;;;;16.00;8.00;;;;;;;-3.20;94.63;100034.41;1704212;82;21626;-65
2022/02/03 20:18:23;;;;;;;28.45;11.05;;;;;;;-3.21;97.12;100024.92;1710072;82;21089;-64
2022/02/03 20:20:49;;;;;;;17.55;7.55;;;;;;;-3.19;95.74;100027.11;1708595;82;21042;-66
2022/02/03 20:23:20;;;;;;;16.62;8.13;;;;;;;-3.20;95.92;100020.63;1704247;82;21097;-65
2022/02/03 20:25:54;;;;;;;17.00;7.87;;;;;;;-3.22;96.26;100026.17;1703471;82;21131;-65
2022/02/03 20:28:17;;;;;;;11.22;6.33;;;;;;;-3.19;96.30;100024.96;1704198;82;21041;-65
2022/02/03 20:30:46;;;;;;;13.40;6.80;;;;;;;-3.20;97.40;100026.68;1704360;83;21677;-66
2022/02/03 20:33:13;;;;;;;13.25;6.50;;;;;;;-3.22;96.46;100027.07;1704552;83;21009;-64
2022/02/03 20:35:40;;;;;;;28.75;12.03;;;;;;;-3.22;96.53;100023.20;1704217;83;21101;-65
2022/02/03 20:38:08;;;;;;;13.28;6.58;;;;;;;-3.24;96.99;100019.73;1684130;84;21088;-65
2022/02/03 20:40:35;;;;;;;12.50;6.20;;;;;;;-3.23;95.67;100017.59;1728449;82;21085;-65
2022/02/03 20:43:02;;;;;;;13.75;6.62;;;;;;;-3.23;95.91;100017.59;1733569;82;21531;-65
2022/02/03 20:45:28;;;;;;;12.98;6.08;;;;;;;-3.26;95.47;100015.41;1733702;82;21047;-66
2022/02/03 20:47:55;;;;;;;14.53;6.33;;;;;;;-3.28;94.85;100010.22;1733616;82;21046;-65
2022/02/03 20:50:21;;;;;;;14.47;7.12;;;;;;;-3.30;96.91;100008.03;1712552;82;21150;-66
2022/02/03 20:52:48;;;;;;;13.93;6.12;;;;;;;-3.33;94.96;100005.84;1733543;82;21034;-65
2022/02/03 20:55:19;;;;;;;24.55;11.75;;;;;;;-3.34;95.56;100009.23;1734008;82;21117;-65
2022/02/03 20:57:46;;;;;;;11.03;5.97;;;;;;;-3.37;95.58;100015.20;1733743;82;21046;-65
2022/02/03 21:05:18;;;;;;;12.90;5.50;;;;;;;-3.42;95.66;100014.27;1734031;82;21061;-65
2022/02/03 21:07:47;;;;;;;18.55;8.20;;;;;;;-3.40;97.45;100015.16;1729310;82;21062;-65
2022/02/03 21:10:18;;;;;;;10.80;6.10;;;;;;;-3.42;97.47;100016.41;1734051;82;21121;-65
2022/02/03 21:12:46;;;;;;;8.15;4.35;;;;;;;-3.43;94.93;100027.96;1726673;82;21597;-66
2022/02/03 21:15:19;;;;;;;8.00;4.75;;;;;;;-3.45;94.81;100028.35;1704441;84;22243;-65
2022/02/03 21:17:42;;;;;;;9.23;4.37;;;;;;;-3.48;95.37;100033.45;1703772;83;21125;-66
2022/02/03 21:20:15;;;;;;;9.93;5.25;;;;;;;-3.50;95.53;100028.27;1704476;83;21621;-65
2022/02/03 21:22:40;;;;;;;15.85;7.87;;;;;;;-3.50;96.13;100033.84;1704012;84;21568;-65
2022/02/03 21:25:31;;;;;;;12.68;5.42;;;;;;;-3.52;95.10;100033.84;1704434;84;21590;-65
2022/02/03 21:27:49;;;;;;;21.48;9.18;;;;;;;-3.45;98.96;100041.23;1702689;84;21486;-67
2022/02/03 21:30:17;;;;;;;12.23;5.95;;;;;;;-3.41;98.86;100031.44;1704470;83;21565;-65
2022/02/03 21:32:44;;;;;;;10.82;5.03;;;;;;;-3.38;97.66;100028.94;1727499;82;21051;-65
2022/02/03 21:35:11;;;;;;;12.33;5.42;;;;;;;-3.37;98.43;100034.09;1747708;82;21050;-65
2022/02/03 21:37:39;;;;;;;8.68;4.70;;;;;;;-3.41;96.42;100032.72;1736407;82;21040;-65
2022/02/03 21:40:09;;;;;;;7.80;4.67;;;;;;;-3.43;94.68;100029.25;1718064;83;21586;-65
2022/02/03 21:42:36;;;;;;;;;;;;;;;-3.45;96.69;100032.22;1720610;83;21069;-65
2022/02/03 21:45:03;;;;;;;11.30;5.47;;;;;;;-3.47;95.27;100031.34;1716511;82;20177;-65
2022/02/03 21:47:31;;;;;;;9.05;5.58;;;;;;;-3.47;96.83;100031.34;1709640;83;21069;-65